Aérodrome :
LOGIN :

S'inscrire | Disclaimer

   EN    FR    IT 

 










Légende :    VFR   VFR Marginal   IFR   IFR Intensif   IFR Très Intensif
Visi : 
Plafond : 
>= 8 km
>= 3000ft
5 à 8 km
1000 à 3000 ft
1500m à 5 km
500 à 1000 ft
800 à 1500m
200 à 500 ft
< 800m
< 200 ft
Symboles :   Orages  Brouillard  Fortes neiges  Fortes précipitations  Vent > 20 kt
SIGMETs :   Divers  Orages  Givrage  Turbulence  Onde Orograph.  Cendres Volcan.







- Altitude de l'aérodrome : 290 ft
- Code IATA : ACI
- Voir les cartes d'approche


EGJA - Alderney

DERNIER METAR :
  • 290650Z 25008KT 9999 FEW002 SCT004 BKN017 13/13 Q0996

METARs EXPIRÉS :
  • 290620Z 26011KT 4000 -RADZ BR FEW002 BKN004 BKN013 13/13 Q0996
  • 290550Z 25008KT 9999 SCT002 BKN003 13/13 Q0996

TAF TAF EGJA
Valide du 29 à 07h jusqu'au 29 à 15h UTC


290637Z 2907/2915 25011KT 9999 FEW008 SCT015
TEMPO 2907/2910 3000 -RADZ BKN003
Pas de NOTAMs connus pour ce terrain.
1 SIGMET publié pour la FIR Brest (LFRR) :
 
Turbulence forte
LFRR SIGMET 1 VALID 290530/290930 LFPW
LFRR BREST FIR/UIR SEV TURB FCST SE OF LINE N4445 W00145 - N4415 W00500 SFC/FL050 STNR INTSF=



MET'MAP, la Météo Aéronautique d'un coup d'oeil ! - Copyright ORBIFLY Décembre 2007 - Disclaimer

ORBIFLY MET'MAP TEAM :

Programmation & Développement : Alexandra Zaïnal
Conception & Développement : Baudouin d'Aumeries
Co-Programmation & Développement : Marc-Olivier Méhu
Soutien technique & logistique : Manuel Goepfert

Contact : metmap@orbifly.com




SOURCES & CREDITS :

   NOAA